sensor_id;sensor_type;location;lat;lon;timestamp;pressure;altitude;pressure_sealevel;temperature;humidity
60355;BME280;46198;51.464;-0.066;2024-03-08T00:00:22;101340.41;;;5.57;100.00
60355;BME280;46198;51.464;-0.066;2024-03-08T00:02:50;101342.28;;;5.57;100.00
60355;BME280;46198;51.464;-0.066;2024-03-08T00:05:18;101339.59;;;5.57;100.00
60355;BME280;46198;51.464;-0.066;2024-03-08T00:07:46;101332.50;;;5.55;100.00
60355;BME280;46198;51.464;-0.066;2024-03-08T00:10:16;101337.41;;;5.52;100.00
60355;BME280;46198;51.464;-0.066;2024-03-08T00:12:45;101335.38;;;5.54;100.00
60355;BME280;46198;51.464;-0.066;2024-03-08T00:15:15;101330.31;;;5.51;100.00
60355;BME280;46198;51.464;-0.066;2024-03-08T00:17:46;101329.69;;;5.49;100.00
60355;BME280;46198;51.464;-0.066;2024-03-08T00:20:15;101326.16;;;5.48;100.00
60355;BME280;46198;51.464;-0.066;2024-03-08T00:22:45;101327.50;;;5.44;100.00
60355;BME280;46198;51.464;-0.066;2024-03-08T00:25:14;101320.75;;;5.48;100.00
60355;BME280;46198;51.464;-0.066;2024-03-08T00:27:44;101313.31;;;5.50;100.00
60355;BME280;46198;51.464;-0.066;2024-03-08T00:30:12;101304.75;;;5.47;100.00
60355;BME280;46198;51.464;-0.066;2024-03-08T00:32:41;101308.13;;;5.49;100.00
60355;BME280;46198;51.464;-0.066;2024-03-08T00:35:10;101300.56;;;5.44;100.00
60355;BME280;46198;51.464;-0.066;2024-03-08T00:37:39;101289.13;;;5.42;100.00
60355;BME280;46198;51.464;-0.066;2024-03-08T00:40:09;101287.81;;;5.38;100.00
60355;BME280;46198;51.464;-0.066;2024-03-08T00:42:38;101283.94;;;5.41;100.00
60355;BME280;46198;51.464;-0.066;2024-03-08T00:45:09;101276.00;;;5.39;100.00
60355;BME280;46198;51.464;-0.066;2024-03-08T00:47:38;101281.22;;;5.41;100.00
60355;BME280;46198;51.464;-0.066;2024-03-08T00:50:07;101270.81;;;5.38;100.00
60355;BME280;46198;51.464;-0.066;2024-03-08T00:52:35;101276.84;;;5.40;100.00
60355;BME280;46198;51.464;-0.066;2024-03-08T00:55:04;101276.53;;;5.34;100.00
60355;BME280;46198;51.464;-0.066;2024-03-08T00:57:33;101269.13;;;5.37;100.00
60355;BME280;46198;51.464;-0.066;2024-03-08T01:00:03;101271.81;;;5.37;100.00
60355;BME280;46198;51.464;-0.066;2024-03-08T01:02:34;101264.28;;;5.32;100.00
60355;BME280;46198;51.464;-0.066;2024-03-08T01:05:03;101263.75;;;5.28;100.00
60355;BME280;46198;51.464;-0.066;2024-03-08T01:07:34;101264.44;;;5.30;100.00
60355;BME280;46198;51.464;-0.066;2024-03-08T01:10:02;101259.72;;;5.32;100.00
60355;BME280;46198;51.464;-0.066;2024-03-08T01:12:30;101257.03;;;5.32;100.00
60355;BME280;46198;51.464;-0.066;2024-03-08T01:14:58;101257.03;;;5.32;100.00
60355;BME280;46198;51.464;-0.066;2024-03-08T01:17:27;101243.25;;;5.27;100.00
60355;BME280;46198;51.464;-0.066;2024-03-08T01:19:57;101257.88;;;5.33;100.00
60355;BME280;46198;51.464;-0.066;2024-03-08T01:22:27;101247.59;;;5.28;100.00
60355;BME280;46198;51.464;-0.066;2024-03-08T01:24:57;101240.38;;;5.29;100.00
60355;BME280;46198;51.464;-0.066;2024-03-08T01:27:27;101239.53;;;5.28;100.00
60355;BME280;46198;51.464;-0.066;2024-03-08T01:29:55;101227.09;;;5.27;100.00
60355;BME280;46198;51.464;-0.066;2024-03-08T01:32:25;101227.09;;;5.27;100.00
60355;BME280;46198;51.464;-0.066;2024-03-08T01:34:53;101220.88;;;5.27;100.00
60355;BME280;46198;51.464;-0.066;2024-03-08T01:37:23;101222.38;;;5.29;100.00
60355;BME280;46198;51.464;-0.066;2024-03-08T01:39:51;101215.50;;;5.27;100.00
60355;BME280;46198;51.464;-0.066;2024-03-08T01:42:19;101208.25;;;5.27;100.00
60355;BME280;46198;51.464;-0.066;2024-03-08T01:44:49;101209.09;;;5.28;100.00
60355;BME280;46198;51.464;-0.066;2024-03-08T01:47:18;101204.72;;;5.27;100.00
60355;BME280;46198;51.464;-0.066;2024-03-08T01:49:47;101207.22;;;5.28;100.00
60355;BME280;46198;51.464;-0.066;2024-03-08T01:52:15;101201.84;;;5.28;100.00
60355;BME280;46198;51.464;-0.066;2024-03-08T01:54:47;101201.84;;;5.28;100.00
60355;BME280;46198;51.464;-0.066;2024-03-08T01:57:15;101208.25;;;5.27;100.00
60355;BME280;46198;51.464;-0.066;2024-03-08T01:59:44;101198.47;;;5.26;100.00
60355;BME280;46198;51.464;-0.066;2024-03-08T02:02:14;101195.16;;;5.24;100.00
60355;BME280;46198;51.464;-0.066;2024-03-08T02:04:47;101182.03;;;5.21;100.00
60355;BME280;46198;51.464;-0.066;2024-03-08T02:07:15;101186.22;;;5.24;100.00
60355;BME280;46198;51.464;-0.066;2024-03-08T02:09:43;101179.00;;;5.24;100.00
60355;BME280;46198;51.464;-0.066;2024-03-08T02:12:13;101174.13;;;5.20;100.00
60355;BME280;46198;51.464;-0.066;2024-03-08T02:14:42;101171.59;;;5.18;100.00
60355;BME280;46198;51.464;-0.066;2024-03-08T02:17:10;101166.06;;;5.20;100.00
60355;BME280;46198;51.464;-0.066;2024-03-08T02:19:39;101167.25;;;5.17;100.00
60355;BME280;46198;51.464;-0.066;2024-03-08T02:22:09;101160.19;;;5.16;100.00
60355;BME280;46198;51.464;-0.066;2024-03-08T02:24:38;101167.13;;;5.10;100.00
60355;BME280;46198;51.464;-0.066;2024-03-08T02:27:06;101157.66;;;5.15;100.00
60355;BME280;46198;51.464;-0.066;2024-03-08T02:29:34;101161.03;;;5.17;100.00
60355;BME280;46198;51.464;-0.066;2024-03-08T02:32:03;101151.81;;;5.11;100.00
60355;BME280;46198;51.464;-0.066;2024-03-08T02:34:32;101141.38;;;5.08;100.00
60355;BME280;46198;51.464;-0.066;2024-03-08T02:37:00;101145.06;;;5.07;100.00
60355;BME280;46198;51.464;-0.066;2024-03-08T02:39:29;101132.16;;;5.02;100.00
60355;BME280;46198;51.464;-0.066;2024-03-08T02:41:59;101127.44;;;5.04;100.00
60355;BME280;46198;51.464;-0.066;2024-03-08T02:44:27;101121.41;;;5.02;100.00
60355;BME280;46198;51.464;-0.066;2024-03-08T02:46:55;101119.53;;;5.03;100.00
60355;BME280;46198;51.464;-0.066;2024-03-08T02:49:23;101113.50;;;5.01;100.00
60355;BME280;46198;51.464;-0.066;2024-03-08T02:51:52;101120.75;;;5.00;100.00
60355;BME280;46198;51.464;-0.066;2024-03-08T02:54:20;101111.53;;;4.95;100.00
60355;BME280;46198;51.464;-0.066;2024-03-08T02:56:49;101101.75;;;4.94;100.00
60355;BME280;46198;51.464;-0.066;2024-03-08T02:59:18;101104.28;;;4.95;100.00
60355;BME280;46198;51.464;-0.066;2024-03-08T03:01:46;101109.19;;;4.92;100.00
60355;BME280;46198;51.464;-0.066;2024-03-08T03:04:14;101107.13;;;4.94;100.00
60355;BME280;46198;51.464;-0.066;2024-03-08T03:06:42;101103.97;;;4.90;100.00
60355;BME280;46198;51.464;-0.066;2024-03-08T03:09:10;101109.19;;;4.92;100.00
60355;BME280;46198;51.464;-0.066;2024-03-08T03:11:39;101098.75;;;4.88;100.00
60355;BME280;46198;51.464;-0.066;2024-03-08T03:14:08;101090.66;;;4.88;100.00
60355;BME280;46198;51.464;-0.066;2024-03-08T03:16:37;101088.66;;;4.91;100.00
60355;BME280;46198;51.464;-0.066;2024-03-08T03:19:05;101090.66;;;4.88;100.00
60355;BME280;46198;51.464;-0.066;2024-03-08T03:21:33;101090.41;;;4.83;100.00
60355;BME280;46198;51.464;-0.066;2024-03-08T03:24:06;101080.47;;;4.84;100.00
60355;BME280;46198;51.464;-0.066;2024-03-08T03:26:37;101073.88;;;4.86;100.00
60355;BME280;46198;51.464;-0.066;2024-03-08T03:29:09;101081.13;;;4.86;100.00
60355;BME280;46198;51.464;-0.066;2024-03-08T03:31:38;101070.69;;;4.83;100.00
60355;BME280;46198;51.464;-0.066;2024-03-08T03:34:07;101074.25;;;4.83;100.00
60355;BME280;46198;51.464;-0.066;2024-03-08T03:36:36;101070.69;;;4.83;100.00
60355;BME280;46198;51.464;-0.066;2024-03-08T03:39:05;101072.91;;;4.79;100.00
60355;BME280;46198;51.464;-0.066;2024-03-08T03:41:38;101068.03;;;4.75;100.00
60355;BME280;46198;51.464;-0.066;2024-03-08T03:44:07;101063.34;;;4.77;100.00
60355;BME280;46198;51.464;-0.066;2024-03-08T03:46:41;101058.47;;;4.72;100.00
60355;BME280;46198;51.464;-0.066;2024-03-08T03:49:11;101052.94;;;4.74;100.00
60355;BME280;46198;51.464;-0.066;2024-03-08T03:51:39;101047.56;;;4.74;100.00
60355;BME280;46198;51.464;-0.066;2024-03-08T03:54:07;101044.38;;;4.70;100.00
60355;BME280;46198;51.464;-0.066;2024-03-08T03:56:36;101041.34;;;4.73;100.00
60355;BME280;46198;51.464;-0.066;2024-03-08T03:59:04;101035.28;;;4.71;100.00
60355;BME280;46198;51.464;-0.066;2024-03-08T04:01:33;101034.94;;;4.74;100.00
60355;BME280;46198;51.464;-0.066;2024-03-08T04:04:06;101030.59;;;4.73;100.00
60355;BME280;46198;51.464;-0.066;2024-03-08T04:06:34;101030.94;;;4.70;100.00
60355;BME280;46198;51.464;-0.066;2024-03-08T04:09:03;101027.22;;;4.71;100.00
60355;BME280;46198;51.464;-0.066;2024-03-08T04:11:32;101018.13;;;4.72;100.00
60355;BME280;46198;51.464;-0.066;2024-03-08T04:14:00;101025.19;;;4.73;100.00
60355;BME280;46198;51.464;-0.066;2024-03-08T04:16:28;101027.53;;;4.76;100.00
60355;BME280;46198;51.464;-0.066;2024-03-08T04:18:56;101022.69;;;4.72;100.00
60355;BME280;46198;51.464;-0.066;2024-03-08T04:21:26;101020.19;;;4.70;100.00
60355;BME280;46198;51.464;-0.066;2024-03-08T04:23:54;101019.34;;;4.70;100.00
60355;BME280;46198;51.464;-0.066;2024-03-08T04:26:23;101016.81;;;4.68;100.00
60355;BME280;46198;51.464;-0.066;2024-03-08T04:28:53;101008.09;;;4.66;100.00
60355;BME280;46198;51.464;-0.066;2024-03-08T04:31:21;101010.09;;;4.64;100.00
60355;BME280;46198;51.464;-0.066;2024-03-08T04:33:49;101006.59;;;4.63;100.00
60355;BME280;46198;51.464;-0.066;2024-03-08T04:36:18;101014.50;;;4.65;100.00
60355;BME280;46198;51.464;-0.066;2024-03-08T04:38:48;101001.41;;;4.62;100.00
60355;BME280;46198;51.464;-0.066;2024-03-08T04:41:16;101006.09;;;4.60;100.00
60355;BME280;46198;51.464;-0.066;2024-03-08T04:43:45;101008.31;;;4.56;100.00
60355;BME280;46198;51.464;-0.066;2024-03-08T04:46:13;101005.44;;;4.58;100.00
60355;BME280;46198;51.464;-0.066;2024-03-08T04:48:41;100998.19;;;4.58;100.00
60355;BME280;46198;51.464;-0.066;2024-03-08T04:51:10;100995.41;;;4.52;100.00
60355;BME280;46198;51.464;-0.066;2024-03-08T04:53:38;100986.66;;;4.50;100.00
60355;BME280;46198;51.464;-0.066;2024-03-08T04:56:08;100995.75;;;4.49;100.00
60355;BME280;46198;51.464;-0.066;2024-03-08T04:58:38;100989.53;;;4.48;100.00
60355;BME280;46198;51.464;-0.066;2024-03-08T05:01:06;100983.50;;;4.46;100.00
60355;BME280;46198;51.464;-0.066;2024-03-08T05:03:39;100991.72;;;4.44;100.00
60355;BME280;46198;51.464;-0.066;2024-03-08T05:06:08;100985.34;;;4.46;100.00
60355;BME280;46198;51.464;-0.066;2024-03-08T05:08:36;100988.03;;;4.46;100.00
60355;BME280;46198;51.464;-0.066;2024-03-08T05:11:05;100984.50;;;4.45;100.00
60355;BME280;46198;51.464;-0.066;2024-03-08T05:13:35;100973.94;;;4.43;100.00
60355;BME280;46198;51.464;-0.066;2024-03-08T05:16:04;100979.47;;;4.42;100.00
60355;BME280;46198;51.464;-0.066;2024-03-08T05:18:34;100970.09;;;4.38;100.00
60355;BME280;46198;51.464;-0.066;2024-03-08T05:21:03;100972.78;;;4.38;100.00
60355;BME280;46198;51.464;-0.066;2024-03-08T05:23:31;100973.97;;;4.35;100.00
60355;BME280;46198;51.464;-0.066;2024-03-08T05:26:01;100965.91;;;4.35;100.00
60355;BME280;46198;51.464;-0.066;2024-03-08T05:28:31;100968.59;;;4.35;100.00
60355;BME280;46198;51.464;-0.066;2024-03-08T05:31:00;100958.50;;;4.37;100.00
60355;BME280;46198;51.464;-0.066;2024-03-08T05:33:28;100957.84;;;4.35;100.00
60355;BME280;46198;51.464;-0.066;2024-03-08T05:35:57;100955.16;;;4.35;100.00
60355;BME280;46198;51.464;-0.066;2024-03-08T05:38:26;100950.44;;;4.37;100.00
60355;BME280;46198;51.464;-0.066;2024-03-08T05:40:54;100956.19;;;4.34;100.00
60355;BME280;46198;51.464;-0.066;2024-03-08T05:43:23;100941.72;;;4.35;100.00
60355;BME280;46198;51.464;-0.066;2024-03-08T05:45:51;100943.38;;;4.36;100.00
60355;BME280;46198;51.464;-0.066;2024-03-08T05:48:21;100942.38;;;4.37;100.00
60355;BME280;46198;51.464;-0.066;2024-03-08T05:50:49;100926.63;;;4.34;100.00
60355;BME280;46198;51.464;-0.066;2024-03-08T05:53:18;100933.66;;;4.35;100.00
60355;BME280;46198;51.464;-0.066;2024-03-08T05:55:46;100930.97;;;4.35;100.00
60355;BME280;46198;51.464;-0.066;2024-03-08T05:58:17;100924.09;;;4.33;100.00
60355;BME280;46198;51.464;-0.066;2024-03-08T06:00:45;100926.94;;;4.31;100.00
60355;BME280;46198;51.464;-0.066;2024-03-08T06:03:18;100916.03;;;4.33;100.00
60355;BME280;46198;51.464;-0.066;2024-03-08T06:05:50;100915.19;;;4.32;100.00
60355;BME280;46198;51.464;-0.066;2024-03-08T06:08:18;100903.78;;;4.30;100.00
60355;BME280;46198;51.464;-0.066;2024-03-08T06:10:47;100915.19;;;4.32;100.00
60355;BME280;46198;51.464;-0.066;2024-03-08T06:13:19;100908.97;;;4.32;100.00
60355;BME280;46198;51.464;-0.066;2024-03-08T06:15:48;100914.53;;;4.30;100.00
60355;BME280;46198;51.464;-0.066;2024-03-08T06:18:17;100906.09;;;4.33;100.00
60355;BME280;46198;51.464;-0.066;2024-03-08T06:24:31;100894.34;;;4.34;100.00
60355;BME280;46198;51.464;-0.066;2024-03-08T06:26:59;100894.34;;;4.34;100.00
60355;BME280;46198;51.464;-0.066;2024-03-08T06:29:27;100891.31;;;4.37;100.00
60355;BME280;46198;51.464;-0.066;2024-03-08T06:31:56;100895.66;;;4.38;100.00
60355;BME280;46198;51.464;-0.066;2024-03-08T06:34:24;100892.13;;;4.38;100.00
60355;BME280;46198;51.464;-0.066;2024-03-08T06:36:52;100894.47;;;4.41;100.00
60355;BME280;46198;51.464;-0.066;2024-03-08T06:39:27;100891.59;;;4.42;100.00
60355;BME280;46198;51.464;-0.066;2024-03-08T06:41:59;100892.25;;;4.44;100.00
60355;BME280;46198;51.464;-0.066;2024-03-08T06:44:28;100895.59;;;4.47;100.00
60355;BME280;46198;51.464;-0.066;2024-03-08T06:46:56;100892.91;;;4.47;100.00
60355;BME280;46198;51.464;-0.066;2024-03-08T06:49:27;100893.56;;;4.49;100.00
60355;BME280;46198;51.464;-0.066;2024-03-08T06:51:56;100895.06;;;4.51;100.00
60355;BME280;46198;51.464;-0.066;2024-03-08T06:54:25;100884.13;;;4.53;100.00
60355;BME280;46198;51.464;-0.066;2024-03-08T06:56:53;100886.44;;;4.56;100.00
60355;BME280;46198;51.464;-0.066;2024-03-08T06:59:23;100886.13;;;4.59;100.00
60355;BME280;46198;51.464;-0.066;2024-03-08T07:01:52;100888.81;;;4.59;100.00
60355;BME280;46198;51.464;-0.066;2024-03-08T07:04:21;100882.88;;;4.63;100.00
60355;BME280;46198;51.464;-0.066;2024-03-08T07:06:53;100894.47;;;4.64;100.00
60355;BME280;46198;51.464;-0.066;2024-03-08T07:09:21;100887.72;;;4.68;100.00
60355;BME280;46198;51.464;-0.066;2024-03-08T07:11:50;100885.69;;;4.70;100.00
60355;BME280;46198;51.464;-0.066;2024-03-08T07:14:23;100885.31;;;4.73;100.00
60355;BME280;46198;51.464;-0.066;2024-03-08T07:16:52;100887.66;;;4.76;100.00
60355;BME280;46198;51.464;-0.066;2024-03-08T07:19:20;100882.09;;;4.78;100.00
60355;BME280;46198;51.464;-0.066;2024-03-08T07:21:48;100881.91;;;4.79;100.00
60355;BME280;46198;51.464;-0.066;2024-03-08T07:24:17;100888.63;;;4.83;100.00
60355;BME280;46198;51.464;-0.066;2024-03-08T07:27:06;100874.81;;;4.86;100.00
60355;BME280;46198;51.464;-0.066;2024-03-08T07:29:36;100879.81;;;4.89;100.00
60355;BME280;46198;51.464;-0.066;2024-03-08T07:32:04;100881.97;;;4.94;100.00
60355;BME280;46198;51.464;-0.066;2024-03-08T07:34:48;100877.50;;;5.01;100.00
60355;BME280;46198;51.464;-0.066;2024-03-08T07:37:17;100875.94;;;5.07;100.00
60355;BME280;46198;51.464;-0.066;2024-03-08T07:39:47;100878.75;;;5.14;100.00
60355;BME280;46198;51.464;-0.066;2024-03-08T07:42:16;100881.53;;;5.20;100.00
60355;BME280;46198;51.464;-0.066;2024-03-08T07:44:46;100884.50;;;5.25;100.00
60355;BME280;46198;51.464;-0.066;2024-03-08T07:47:17;100875.06;;;5.29;100.00
60355;BME280;46198;51.464;-0.066;2024-03-08T07:49:49;100879.16;;;5.40;100.00
60355;BME280;46198;51.464;-0.066;2024-03-08T07:52:18;100875.88;;;5.45;100.00
60355;BME280;46198;51.464;-0.066;2024-03-08T07:54:47;100868.75;;;5.52;100.00
60355;BME280;46198;51.464;-0.066;2024-03-08T07:57:16;100870.03;;;5.56;100.00
60355;BME280;46198;51.464;-0.066;2024-03-08T07:59:46;100868.94;;;5.65;100.00
60355;BME280;46198;51.464;-0.066;2024-03-08T08:02:14;100869.00;;;5.72;100.00
60355;BME280;46198;51.464;-0.066;2024-03-08T08:04:42;100854.34;;;5.74;100.00
60355;BME280;46198;51.464;-0.066;2024-03-08T08:07:12;100854.88;;;5.85;100.00
60355;BME280;46198;51.464;-0.066;2024-03-08T08:09:41;100854.69;;;5.86;100.00
60355;BME280;46198;51.464;-0.066;2024-03-08T08:12:09;100865.72;;;5.91;100.00
60355;BME280;46198;51.464;-0.066;2024-03-08T08:14:39;100857.94;;;5.96;100.00
60355;BME280;46198;51.464;-0.066;2024-03-08T08:17:09;100835.38;;;5.97;100.00
60355;BME280;46198;51.464;-0.066;2024-03-08T08:19:40;100846.63;;;6.01;100.00
60355;BME280;46198;51.464;-0.066;2024-03-08T08:22:10;100841.50;;;6.06;100.00
60355;BME280;46198;51.464;-0.066;2024-03-08T08:24:38;100838.41;;;6.09;100.00
60355;BME280;46198;51.464;-0.066;2024-03-08T08:27:07;100836.88;;;6.21;100.00
60355;BME280;46198;51.464;-0.066;2024-03-08T08:29:36;100836.56;;;6.31;100.00
60355;BME280;46198;51.464;-0.066;2024-03-08T08:32:04;100841.19;;;6.37;100.00
60355;BME280;46198;51.464;-0.066;2024-03-08T08:34:36;100837.97;;;6.49;100.00
60355;BME280;46198;51.464;-0.066;2024-03-08T08:37:04;100837.66;;;6.58;100.00
60355;BME280;46198;51.464;-0.066;2024-03-08T08:39:32;100818.91;;;6.72;100.00
60355;BME280;46198;51.464;-0.066;2024-03-08T08:42:01;100827.56;;;6.67;100.00
60355;BME280;46198;51.464;-0.066;2024-03-08T08:44:29;100826.88;;;6.86;100.00
60355;BME280;46198;51.464;-0.066;2024-03-08T08:46:58;100829.00;;;6.91;100.00
60355;BME280;46198;51.464;-0.066;2024-03-08T08:49:39;100819.66;;;6.87;100.00
60355;BME280;46198;51.464;-0.066;2024-03-08T08:52:07;100821.97;;;6.90;100.00
60355;BME280;46198;51.464;-0.066;2024-03-08T08:54:43;100810.50;;;6.88;100.00
60355;BME280;46198;51.464;-0.066;2024-03-08T08:57:16;100813.47;;;6.93;100.00
60355;BME280;46198;51.464;-0.066;2024-03-08T08:59:44;100816.00;;;7.01;100.00
60355;BME280;46198;51.464;-0.066;2024-03-08T09:02:12;100816.34;;;7.20;100.00
60355;BME280;46198;51.464;-0.066;2024-03-08T09:04:46;100811.19;;;7.25;100.00
60355;BME280;46198;51.464;-0.066;2024-03-08T09:07:14;100807.44;;;7.26;100.00
60355;BME280;46198;51.464;-0.066;2024-03-08T09:09:44;100806.16;;;7.22;100.00
60355;BME280;46198;51.464;-0.066;2024-03-08T09:12:12;100804.09;;;7.24;100.00
60355;BME280;46198;51.464;-0.066;2024-03-08T09:14:40;100791.72;;;7.36;100.00
60355;BME280;46198;51.464;-0.066;2024-03-08T09:17:09;100792.91;;;7.27;100.00
60355;BME280;46198;51.464;-0.066;2024-03-08T09:19:37;100789.59;;;7.31;100.00
60355;BME280;46198;51.464;-0.066;2024-03-08T09:22:08;100793.31;;;7.24;100.00
60355;BME280;46198;51.464;-0.066;2024-03-08T09:24:37;100784.56;;;7.22;100.00
60355;BME280;46198;51.464;-0.066;2024-03-08T09:27:30;100782.97;;;7.27;100.00
60355;BME280;46198;51.464;-0.066;2024-03-08T09:29:59;100766.38;;;7.37;100.00
60355;BME280;46198;51.464;-0.066;2024-03-08T09:32:28;100777.00;;;7.45;100.00
60355;BME280;46198;51.464;-0.066;2024-03-08T09:34:56;100766.03;;;7.53;100.00
60355;BME280;46198;51.464;-0.066;2024-03-08T09:37:26;100760.63;;;7.53;100.00
60355;BME280;46198;51.464;-0.066;2024-03-08T09:39:54;100751.94;;;7.65;100.00
60355;BME280;46198;51.464;-0.066;2024-03-08T09:42:23;100755.72;;;7.84;100.00
60355;BME280;46198;51.464;-0.066;2024-03-08T09:44:52;100748.66;;;7.89;100.00
60355;BME280;46198;51.464;-0.066;2024-03-08T09:47:22;100740.16;;;7.92;100.00
60355;BME280;46198;51.464;-0.066;2024-03-08T09:49:56;100736.84;;;7.90;100.00
60355;BME280;46198;51.464;-0.066;2024-03-08T09:52:26;100724.78;;;7.93;100.00
60355;BME280;46198;51.464;-0.066;2024-03-08T09:54:56;100729.16;;;7.94;100.00
60355;BME280;46198;51.464;-0.066;2024-03-08T09:57:25;100718.75;;;8.11;100.00
60355;BME280;46198;51.464;-0.066;2024-03-08T09:59:53;100715.66;;;8.27;100.00
60355;BME280;46198;51.464;-0.066;2024-03-08T10:02:21;100710.88;;;8.62;100.00
60355;BME280;46198;51.464;-0.066;2024-03-08T10:04:51;100703.78;;;8.68;100.00
60355;BME280;46198;51.464;-0.066;2024-03-08T10:07:20;100705.66;;;8.81;100.00
60355;BME280;46198;51.464;-0.066;2024-03-08T10:09:51;100703.13;;;8.93;100.00
60355;BME280;46198;51.464;-0.066;2024-03-08T10:12:20;100701.03;;;9.01;100.00
60355;BME280;46198;51.464;-0.066;2024-03-08T10:14:49;100694.16;;;8.92;100.00
60355;BME280;46198;51.464;-0.066;2024-03-08T10:17:19;100692.13;;;8.87;100.00
60355;BME280;46198;51.464;-0.066;2024-03-08T10:19:50;100687.97;;;8.65;100.00
60355;BME280;46198;51.464;-0.066;2024-03-08T10:22:20;100674.66;;;8.70;100.00
60355;BME280;46198;51.464;-0.066;2024-03-08T10:24:50;100678.38;;;8.82;100.00
60355;BME280;46198;51.464;-0.066;2024-03-08T10:27:18;100667.63;;;9.14;100.00
60355;BME280;46198;51.464;-0.066;2024-03-08T10:29:47;100668.81;;;9.31;100.00
60355;BME280;46198;51.464;-0.066;2024-03-08T10:32:17;100667.09;;;9.44;100.00
60355;BME280;46198;51.464;-0.066;2024-03-08T10:34:45;100663.03;;;9.66;100.00
60355;BME280;46198;51.464;-0.066;2024-03-08T10:37:15;100654.56;;;9.81;100.00
60355;BME280;46198;51.464;-0.066;2024-03-08T10:39:58;100662.50;;;9.83;100.00
60355;BME280;46198;51.464;-0.066;2024-03-08T10:42:40;100647.72;;;10.04;100.00
60355;BME280;46198;51.464;-0.066;2024-03-08T10:45:15;100638.56;;;9.98;100.00
60355;BME280;46198;51.464;-0.066;2024-03-08T10:47:46;100628.13;;;10.02;100.00
60355;BME280;46198;51.464;-0.066;2024-03-08T10:50:18;100625.28;;;10.15;100.00
60355;BME280;46198;51.464;-0.066;2024-03-08T10:52:48;100618.31;;;10.01;100.00
60355;BME280;46198;51.464;-0.066;2024-03-08T10:55:19;100622.44;;;10.10;100.00
60355;BME280;46198;51.464;-0.066;2024-03-08T10:57:47;100619.88;;;10.15;100.00
60355;BME280;46198;51.464;-0.066;2024-03-08T11:00:16;100599.75;;;10.29;100.00
60355;BME280;46198;51.464;-0.066;2024-03-08T11:02:53;100597.72;;;10.43;100.00
60355;BME280;46198;51.464;-0.066;2024-03-08T11:05:32;100590.25;;;10.38;100.00
60355;BME280;46198;51.464;-0.066;2024-03-08T11:08:16;100590.19;;;10.45;100.00
60355;BME280;46198;51.464;-0.066;2024-03-08T11:10:48;100588.28;;;10.27;100.00
60355;BME280;46198;51.464;-0.066;2024-03-08T11:13:34;100582.47;;;10.42;100.00
60355;BME280;46198;51.464;-0.066;2024-03-08T11:16:07;100575.41;;;10.59;100.00
60355;BME280;46198;51.464;-0.066;2024-03-08T11:18:36;100576.63;;;10.20;100.00
60355;BME280;46198;51.464;-0.066;2024-03-08T11:21:08;100581.22;;;10.63;100.00
60355;BME280;46198;51.464;-0.066;2024-03-08T11:23:40;100572.06;;;10.94;100.00
60355;BME280;46198;51.464;-0.066;2024-03-08T11:26:18;100572.25;;;10.81;100.00
60355;BME280;46198;51.464;-0.066;2024-03-08T11:28:47;100572.69;;;10.78;100.00
60355;BME280;46198;51.464;-0.066;2024-03-08T11:31:23;100569.53;;;11.11;100.00
60355;BME280;46198;51.464;-0.066;2024-03-08T11:33:52;100564.97;;;11.23;100.00
60355;BME280;46198;51.464;-0.066;2024-03-08T11:36:21;100569.13;;;11.26;100.00
60355;BME280;46198;51.464;-0.066;2024-03-08T11:38:50;100556.97;;;11.28;100.00
60355;BME280;46198;51.464;-0.066;2024-03-08T11:41:22;100560.13;;;11.25;100.00
60355;BME280;46198;51.464;-0.066;2024-03-08T11:47:36;100547.50;;;11.31;100.00
60355;BME280;46198;51.464;-0.066;2024-03-08T11:50:07;100544.59;;;11.44;100.00
60355;BME280;46198;51.464;-0.066;2024-03-08T11:52:37;100534.00;;;11.54;100.00
60355;BME280;46198;51.464;-0.066;2024-03-08T11:55:07;100542.53;;;11.70;100.00
60355;BME280;46198;51.464;-0.066;2024-03-08T11:57:37;100526.78;;;11.72;100.00
60355;BME280;46198;51.464;-0.066;2024-03-08T12:00:06;100539.16;;;11.86;100.00
60355;BME280;46198;51.464;-0.066;2024-03-08T12:03:01;100524.47;;;11.87;100.00
60355;BME280;46198;51.464;-0.066;2024-03-08T12:05:29;100522.00;;;12.09;100.00
60355;BME280;46198;51.464;-0.066;2024-03-08T12:07:58;100509.44;;;12.20;100.00
60355;BME280;46198;51.464;-0.066;2024-03-08T12:10:27;100516.16;;;12.29;100.00
60355;BME280;46198;51.464;-0.066;2024-03-08T12:12:58;100506.03;;;12.65;100.00
60355;BME280;46198;51.464;-0.066;2024-03-08T12:15:28;100506.13;;;12.70;100.00
60355;BME280;46198;51.464;-0.066;2024-03-08T12:17:59;100494.94;;;12.55;100.00
60355;BME280;46198;51.464;-0.066;2024-03-08T12:20:29;100493.28;;;12.82;100.00
60355;BME280;46198;51.464;-0.066;2024-03-08T12:22:58;100502.16;;;12.90;100.00
60355;BME280;46198;51.464;-0.066;2024-03-08T12:25:30;100490.47;;;13.06;100.00
60355;BME280;46198;51.464;-0.066;2024-03-08T12:28:08;100497.59;;;13.24;100.00
60355;BME280;46198;51.464;-0.066;2024-03-08T12:30:46;100501.34;;;13.35;100.00
60355;BME280;46198;51.464;-0.066;2024-03-08T12:33:15;100491.72;;;13.44;100.00
60355;BME280;46198;51.464;-0.066;2024-03-08T12:35:50;100487.16;;;13.66;100.00
60355;BME280;46198;51.464;-0.066;2024-03-08T12:38:22;100486.50;;;13.76;95.96
60355;BME280;46198;51.464;-0.066;2024-03-08T12:40:55;100478.72;;;13.85;100.00
60355;BME280;46198;51.464;-0.066;2024-03-08T12:43:26;100491.88;;;13.71;84.94
60355;BME280;46198;51.464;-0.066;2024-03-08T12:45:58;100473.34;;;13.73;86.06
60355;BME280;46198;51.464;-0.066;2024-03-08T12:48:27;100471.97;;;14.09;90.99
60355;BME280;46198;51.464;-0.066;2024-03-08T12:50:55;100468.75;;;14.34;95.16
60355;BME280;46198;51.464;-0.066;2024-03-08T12:53:23;100472.72;;;14.27;86.58
60355;BME280;46198;51.464;-0.066;2024-03-08T12:55:52;100467.31;;;14.10;98.16
60355;BME280;46198;51.464;-0.066;2024-03-08T12:58:23;100460.16;;;14.04;100.00